Time;durP1;ratioP1;P1;durP2;ratioP2;P2;SDS_P1;SDS_P2;PMS_P1;PMS_P2;Temp;Humidity;BMP_temperature;BMP_pressure;BME280_temperature;BME280_humidity;BME280_pressure;Samples;Min_cycle;Max_cycle;Signal;HPM_P1;HPM_P2
2022/10/15 00:00:05;;;;;;;84.35;61.60;;;18.10;1.00;;;;;;5052497;28;20044;-52
2022/10/15 00:02:31;;;;;;;89.85;64.85;;;18.10;1.00;;;;;;5046292;28;20037;-49
2022/10/15 00:04:57;;;;;;;87.90;64.50;;;18.00;1.00;;;;;;5052828;28;20386;-52
2022/10/15 00:07:23;;;;;;;87.57;62.92;;;18.00;1.00;;;;;;5049120;28;20044;-47
2022/10/15 00:09:49;;;;;;;83.70;63.22;;;18.00;1.00;;;;;;5047190;28;20032;-50
2022/10/15 00:12:14;;;;;;;88.82;61.08;;;18.00;1.00;;;;;;5048327;28;20127;-51
2022/10/15 00:14:40;;;;;;;87.78;62.33;;;18.00;1.00;;;;;;5051930;28;20021;-47
2022/10/15 00:17:06;;;;;;;87.20;61.88;;;18.00;1.00;;;;;;5052696;28;20112;-49
2022/10/15 00:19:31;;;;;;;91.40;61.38;;;17.90;1.00;;;;;;5051383;28;20025;-49
2022/10/15 00:21:57;;;;;;;87.05;61.53;;;17.90;1.00;;;;;;5052460;28;20024;-47
2022/10/15 00:24:23;;;;;;;81.50;58.20;;;17.90;1.00;;;;;;5051843;28;20029;-49
2022/10/15 00:26:48;;;;;;;78.38;56.65;;;17.90;1.00;;;;;;5052655;28;20025;-52
2022/10/15 00:29:14;;;;;;;80.47;56.40;;;17.90;1.00;;;;;;5051664;28;20037;-53
2022/10/15 00:31:40;;;;;;;83.03;57.88;;;17.90;1.00;;;;;;5052163;28;20090;-50
2022/10/15 00:34:06;;;;;;;84.85;59.03;;;17.90;1.00;;;;;;5051733;28;20033;-50
2022/10/15 00:36:34;;;;;;;83.40;58.67;;;17.90;1.00;;;;;;5052195;28;20493;-52
2022/10/15 00:39:00;;;;;;;80.35;56.45;;;18.00;1.00;;;;;;5050855;28;20041;-48
2022/10/15 00:41:32;;;;;;;82.43;58.50;;;18.00;1.00;;;;;;5052605;28;20501;-49
2022/10/15 00:44:19;;;;;;;82.68;57.15;;;18.00;1.00;;;;;;5051414;28;20098;-49
2022/10/15 00:46:50;;;;;;;81.45;55.95;;;18.00;1.00;;;;;;5052180;28;20386;-50
2022/10/15 00:49:27;;;;;;;82.07;57.83;;;17.90;1.00;;;;;;5051451;28;20031;-53
2022/10/15 00:52:28;;;;;;;79.20;54.67;;;18.00;1.00;;;;;;5052358;28;20033;-47
2022/10/15 00:55:12;;;;;;;82.85;58.53;;;18.00;1.00;;;;;;5052065;28;20077;-50
2022/10/15 00:57:40;;;;;;;79.18;56.90;;;17.90;1.00;;;;;;5051410;28;20096;-49
2022/10/15 01:00:13;;;;;;;83.60;57.42;;;17.90;1.00;;;;;;5052411;28;20075;-49
2022/10/15 01:02:40;;;;;;;80.35;57.00;;;17.90;1.00;;;;;;5040668;28;20029;-49
2022/10/15 01:05:07;;;;;;;83.60;58.25;;;18.00;1.00;;;;;;5043660;28;20105;-49
2022/10/15 01:07:33;;;;;;;82.97;58.83;;;18.00;1.00;;;;;;5046001;28;20116;-49
2022/10/15 01:09:59;;;;;;;86.57;60.03;;;18.00;1.00;;;;;;5043171;28;20108;-48
2022/10/15 01:12:32;;;;;;;88.32;60.13;;;18.00;1.00;;;;;;5041588;28;20050;-49
2022/10/15 01:15:25;;;;;;;85.57;61.50;;;17.90;1.00;;;;;;5049551;28;20116;-50
2022/10/15 01:18:10;;;;;;;85.95;58.83;;;17.90;1.00;;;;;;5050276;28;20552;-46
2022/10/15 01:21:00;;;;;;;88.82;57.92;;;18.00;1.00;;;;;;5034231;28;20527;-52
2022/10/15 01:23:40;;;;;;;79.63;56.55;;;18.00;1.00;;;;;;5051054;28;20017;-48
2022/10/15 01:26:12;;;;;;;84.57;57.88;;;18.00;1.00;;;;;;5055254;28;20079;-50
2022/10/15 01:28:44;;;;;;;87.88;58.35;;;18.00;1.00;;;;;;5052985;28;20033;-48
2022/10/15 01:31:28;;;;;;;84.25;59.85;;;18.00;1.00;;;;;;5055218;28;20028;-51
2022/10/15 01:33:53;;;;;;;82.72;57.40;;;18.10;1.00;;;;;;5052397;28;20036;-47
2022/10/15 01:36:28;;;;;;;87.22;60.55;;;18.10;1.00;;;;;;5055609;28;20029;-51
2022/10/15 01:39:03;;;;;;;85.40;57.97;;;18.00;1.00;;;;;;5043472;28;20105;-46
2022/10/15 01:41:37;;;;;;;81.55;57.95;;;18.10;1.00;;;;;;5045830;28;20382;-48
2022/10/15 01:44:16;;;;;;;90.13;60.63;;;18.10;1.00;;;;;;5054550;28;20060;-49
2022/10/15 01:46:53;;;;;;;88.53;58.47;;;18.10;1.00;;;;;;5055765;28;20508;-50
2022/10/15 01:49:25;;;;;;;87.38;62.30;;;18.10;1.00;;;;;;5054028;28;20021;-49
2022/10/15 01:51:53;;;;;;;80.45;58.22;;;18.10;1.00;;;;;;5055096;28;20032;-49
2022/10/15 01:54:22;;;;;;;80.65;57.28;;;18.10;1.00;;;;;;5043380;28;20025;-50
2022/10/15 01:56:50;;;;;;;82.25;57.63;;;18.10;1.00;;;;;;5051355;28;20041;-51
2022/10/15 01:59:25;;;;;;;82.80;57.80;;;18.10;1.00;;;;;;5043015;28;20100;-53
2022/10/15 02:01:51;;;;;;;85.03;58.70;;;18.10;1.00;;;;;;5050476;28;20498;-49
2022/10/15 02:04:26;;;;;;;85.00;58.70;;;18.20;1.00;;;;;;5053146;28;20028;-50
2022/10/15 02:07:05;;;;;;;81.32;58.83;;;18.20;1.00;;;;;;5055015;28;20025;-51
2022/10/15 02:09:34;;;;;;;81.82;58.50;;;18.10;1.00;;;;;;5049244;28;20029;-46
2022/10/15 02:12:06;;;;;;;84.82;59.83;;;18.10;1.00;;;;;;5045498;28;20061;-47
2022/10/15 02:14:44;;;;;;;89.90;60.05;;;18.10;1.00;;;;;;5048420;28;20450;-48
2022/10/15 02:17:11;;;;;;;89.72;60.67;;;18.10;1.00;;;;;;5054916;28;20025;-47
2022/10/15 02:19:58;;;;;;;91.50;60.83;;;18.10;1.00;;;;;;5053694;28;20509;-46
2022/10/15 02:22:36;;;;;;;83.55;58.90;;;18.10;1.00;;;;;;5054540;28;20490;-47
2022/10/15 02:25:15;;;;;;;89.22;62.17;;;18.10;1.00;;;;;;5048638;28;20025;-48
2022/10/15 02:27:42;;;;;;;88.95;62.90;;;18.10;1.00;;;;;;5047208;28;20021;-53
2022/10/15 02:30:09;;;;;;;87.30;60.55;;;18.00;1.00;;;;;;5053720;28;20071;-48
2022/10/15 02:32:37;;;;;;;89.32;62.20;;;18.00;1.00;;;;;;5054600;28;20182;-51
2022/10/15 02:35:06;;;;;;;93.40;63.78;;;18.00;1.00;;;;;;5053514;28;20021;-50
2022/10/15 02:37:34;;;;;;;93.40;65.07;;;18.00;1.00;;;;;;5054405;28;20585;-50
2022/10/15 02:40:00;;;;;;;95.47;65.78;;;17.90;1.00;;;;;;5053080;28;20152;-47
2022/10/15 02:42:26;;;;;;;96.10;66.38;;;18.00;1.00;;;;;;5053418;28;20116;-47
2022/10/15 02:44:52;;;;;;;97.60;67.10;;;18.00;1.00;;;;;;5050499;28;20033;-51
2022/10/15 02:47:18;;;;;;;99.47;68.53;;;18.00;1.00;;;;;;5054085;28;20052;-48
2022/10/15 02:49:43;;;;;;;95.15;66.07;;;17.90;1.00;;;;;;5052818;28;20059;-53
2022/10/15 02:52:09;;;;;;;92.63;64.85;;;17.90;1.00;;;;;;5053494;28;20025;-49
2022/10/15 02:54:34;;;;;;;95.05;64.00;;;17.90;1.00;;;;;;5053460;28;20029;-47
2022/10/15 02:57:00;;;;;;;97.70;66.28;;;17.90;1.00;;;;;;5053985;28;20029;-46
2022/10/15 02:59:26;;;;;;;95.10;65.70;;;17.80;1.00;;;;;;5053370;28;20021;-47
2022/10/15 03:01:51;;;;;;;97.22;64.57;;;17.90;1.00;;;;;;5054110;28;20098;-49
2022/10/15 03:04:17;;;;;;;90.85;63.13;;;17.90;1.00;;;;;;5052555;28;20052;-48
2022/10/15 03:06:42;;;;;;;91.90;64.57;;;17.90;1.00;;;;;;5054048;28;20021;-49
2022/10/15 03:09:08;;;;;;;92.75;63.13;;;17.90;1.00;;;;;;5047864;28;20025;-49
2022/10/15 03:11:34;;;;;;;96.78;64.65;;;17.90;1.00;;;;;;5053407;28;20051;-49
2022/10/15 03:13:59;;;;;;;100.13;64.88;;;17.90;1.00;;;;;;5040781;28;20080;-48
2022/10/15 03:16:25;;;;;;;86.68;60.90;;;18.00;1.00;;;;;;5037420;28;20096;-54
2022/10/15 03:18:51;;;;;;;95.20;62.05;;;18.00;1.00;;;;;;5037531;28;20108;-49
2022/10/15 03:21:16;;;;;;;91.30;62.42;;;18.00;1.00;;;;;;5048745;28;20443;-53
2022/10/15 03:23:42;;;;;;;95.43;63.83;;;18.00;1.00;;;;;;5048300;28;20025;-50
2022/10/15 03:26:07;;;;;;;95.35;63.55;;;18.00;1.00;;;;;;5062691;28;20028;-53
2022/10/15 03:28:33;;;;;;;98.18;65.45;;;18.10;1.00;;;;;;5052619;28;20048;-51
2022/10/15 03:30:59;;;;;;;98.15;64.35;;;18.00;1.00;;;;;;5052710;28;20367;-51
2022/10/15 03:33:24;;;;;;;94.70;64.50;;;18.10;1.00;;;;;;5051744;28;20119;-48
2022/10/15 03:35:51;;;;;;;96.53;65.85;;;18.10;1.00;;;;;;5053430;28;20021;-47
2022/10/15 03:38:17;;;;;;;98.53;64.40;;;18.10;1.00;;;;;;5052513;28;20136;-48
2022/10/15 03:40:44;;;;;;;91.93;62.63;;;18.10;1.00;;;;;;5053220;28;20035;-51
2022/10/15 03:43:09;;;;;;;89.40;60.63;;;18.10;1.00;;;;;;5052704;28;20036;-50
2022/10/15 03:45:35;;;;;;;84.45;59.97;;;18.10;1.00;;;;;;5050689;28;20025;-48
2022/10/15 03:48:00;;;;;;;82.65;59.00;;;18.10;1.00;;;;;;5053539;28;20428;-50
2022/10/15 03:50:26;;;;;;;84.45;59.55;;;18.10;1.00;;;;;;5052423;28;20032;-50
2022/10/15 03:52:51;;;;;;;83.88;59.17;;;18.10;1.00;;;;;;5053183;28;20036;-49
2022/10/15 03:55:17;;;;;;;100.05;66.95;;;18.10;1.00;;;;;;5055649;28;20099;-52
2022/10/15 03:57:43;;;;;;;99.90;66.82;;;18.10;1.00;;;;;;5053410;28;20036;-53
2022/10/15 04:00:11;;;;;;;99.38;65.90;;;18.10;1.00;;;;;;5052291;28;20032;-49
2022/10/15 04:02:36;;;;;;;97.90;68.45;;;18.10;1.00;;;;;;5052978;28;20029;-51
2022/10/15 04:05:02;;;;;;;90.63;62.30;;;18.10;1.00;;;;;;5047649;28;20028;-48
2022/10/15 04:07:28;;;;;;;92.57;64.93;;;18.10;1.00;;;;;;5049340;28;20040;-53
2022/10/15 04:09:53;;;;;;;86.55;58.75;;;18.10;1.00;;;;;;5050318;28;20032;-49
2022/10/15 04:12:19;;;;;;;101.03;68.68;;;18.10;1.00;;;;;;5052034;28;20111;-52
2022/10/15 04:14:45;;;;;;;108.10;71.35;;;18.00;1.00;;;;;;5050404;28;20116;-51
2022/10/15 04:17:10;;;;;;;100.65;69.07;;;18.00;1.00;;;;;;5052410;28;20366;-49
2022/10/15 04:19:36;;;;;;;100.75;66.07;;;18.00;1.00;;;;;;5043055;28;20156;-48
2022/10/15 04:22:02;;;;;;;98.82;66.28;;;18.00;1.00;;;;;;5051843;28;20021;-46
2022/10/15 04:24:28;;;;;;;97.75;65.43;;;18.00;1.00;;;;;;5043635;28;20040;-49
2022/10/15 04:26:53;;;;;;;95.82;66.05;;;18.00;1.00;;;;;;5046916;28;20025;-48
2022/10/15 04:29:19;;;;;;;99.53;65.50;;;18.00;1.00;;;;;;5045563;28;20099;-51
2022/10/15 04:31:45;;;;;;;99.40;65.57;;;18.00;1.00;;;;;;5052065;28;20359;-49
2022/10/15 04:34:10;;;;;;;98.78;68.18;;;18.00;1.00;;;;;;5051655;28;20135;-48
2022/10/15 04:36:36;;;;;;;109.25;72.90;;;18.00;1.00;;;;;;5052448;28;20047;-53
2022/10/15 04:39:02;;;;;;;107.68;69.05;;;18.00;1.00;;;;;;5039874;28;20028;-53
2022/10/15 04:41:29;;;;;;;108.30;69.97;;;18.10;1.00;;;;;;5052563;28;20021;-52
2022/10/15 04:43:55;;;;;;;106.53;72.43;;;18.00;1.00;;;;;;5061172;28;20021;-48
2022/10/15 04:46:21;;;;;;;109.05;70.10;;;18.00;1.00;;;;;;5038872;28;20502;-47
2022/10/15 04:48:47;;;;;;;110.32;74.40;;;18.00;1.00;;;;;;5051640;28;20029;-49
2022/10/15 04:51:18;;;;;;;120.32;78.00;;;18.00;1.00;;;;;;5052445;28;20438;-48
2022/10/15 04:53:44;;;;;;;118.30;75.75;;;18.00;1.00;;;;;;5050862;28;20510;-51
2022/10/15 04:56:14;;;;;;;104.93;72.63;;;18.00;1.00;;;;;;5054767;28;20026;-47
2022/10/15 04:58:41;;;;;;;113.47;74.47;;;18.10;1.00;;;;;;5055130;28;20036;-50
2022/10/15 05:01:12;;;;;;;118.85;78.22;;;18.10;1.00;;;;;;5071405;28;20025;-52
2022/10/15 05:03:39;;;;;;;110.13;75.18;;;18.10;1.00;;;;;;5056177;28;20175;-47
2022/10/15 05:06:17;;;;;;;111.57;74.25;;;18.10;1.00;;;;;;5055318;28;20474;-51
2022/10/15 05:08:43;;;;;;;117.90;79.03;;;18.10;1.00;;;;;;5055310;28;20027;-53
2022/10/15 05:11:15;;;;;;;114.20;77.85;;;18.10;1.00;;;;;;5049645;28;20120;-49
2022/10/15 05:13:42;;;;;;;113.13;75.90;;;18.10;1.00;;;;;;5051140;28;20043;-50
2022/10/15 05:16:14;;;;;;;111.15;73.93;;;18.10;1.00;;;;;;5055252;28;20021;-50
2022/10/15 05:18:40;;;;;;;110.70;73.20;;;18.10;1.00;;;;;;5054861;28;20096;-51
2022/10/15 05:21:06;;;;;;;107.30;72.10;;;18.10;1.00;;;;;;5055059;28;20021;-49
2022/10/15 05:23:32;;;;;;;111.35;72.28;;;18.10;1.00;;;;;;5055749;28;20040;-50
2022/10/15 05:26:03;;;;;;;107.30;72.78;;;18.00;1.00;;;;;;5041370;28;20016;-52
2022/10/15 05:28:29;;;;;;;111.68;72.75;;;18.00;1.00;;;;;;5056055;28;20363;-48
2022/10/15 05:30:55;;;;;;;110.88;73.18;;;18.00;1.00;;;;;;5054501;28;20112;-47
2022/10/15 05:33:20;;;;;;;108.15;72.10;;;18.00;1.00;;;;;;5055335;28;20534;-47
2022/10/15 05:35:46;;;;;;;108.95;69.82;;;18.10;1.00;;;;;;5053803;28;20029;-53
2022/10/15 05:38:12;;;;;;;111.90;73.20;;;18.10;1.00;;;;;;5055217;28;20394;-49
2022/10/15 05:40:37;;;;;;;109.80;73.20;;;18.10;1.00;;;;;;5054462;28;20021;-51
2022/10/15 05:43:03;;;;;;;103.80;68.53;;;18.10;1.00;;;;;;5055670;28;20075;-51
2022/10/15 05:45:29;;;;;;;105.57;70.35;;;18.10;1.00;;;;;;5054386;28;20021;-50
2022/10/15 05:47:55;;;;;;;110.32;70.85;;;18.10;1.00;;;;;;5055275;28;20087;-48
2022/10/15 05:50:21;;;;;;;108.10;71.43;;;18.10;1.00;;;;;;5050584;28;20386;-52
2022/10/15 05:52:47;;;;;;;110.45;72.78;;;18.10;1.00;;;;;;5054878;28;20079;-48
2022/10/15 05:55:13;;;;;;;104.65;69.70;;;18.10;1.00;;;;;;5049962;28;20431;-48
2022/10/15 05:57:39;;;;;;;98.30;66.57;;;18.10;1.00;;;;;;5062387;28;20064;-51
2022/10/15 06:00:05;;;;;;;106.22;68.13;;;18.10;1.00;;;;;;5053929;28;20033;-49
2022/10/15 06:02:31;;;;;;;95.68;64.55;;;18.10;1.00;;;;;;5054067;28;20025;-47
2022/10/15 06:04:57;;;;;;;102.68;64.55;;;18.20;1.00;;;;;;5049526;28;20080;-51
2022/10/15 06:07:22;;;;;;;95.43;63.53;;;18.20;1.00;;;;;;5042809;28;20021;-50
2022/10/15 06:09:48;;;;;;;88.10;61.95;;;18.20;1.00;;;;;;5053620;28;20036;-54
2022/10/15 06:12:13;;;;;;;95.38;62.08;;;18.20;1.00;;;;;;5052944;28;20122;-52
2022/10/15 06:14:39;;;;;;;101.82;64.53;;;18.20;1.00;;;;;;5053664;28;20486;-55
2022/10/15 06:17:05;;;;;;;92.15;63.03;;;18.20;1.00;;;;;;5055075;28;20017;-54
2022/10/15 06:19:30;;;;;;;98.75;64.53;;;18.20;1.00;;;;;;5055112;28;20057;-53
2022/10/15 06:21:56;;;;;;;89.28;61.90;;;18.20;1.00;;;;;;5050841;28;20028;-53
2022/10/15 06:24:22;;;;;;;87.60;61.55;;;18.20;1.00;;;;;;5054493;28;20027;-53
2022/10/15 06:26:48;;;;;;;90.30;62.00;;;18.20;1.00;;;;;;5053322;28;20108;-50
2022/10/15 06:29:13;;;;;;;89.97;59.55;;;18.30;1.00;;;;;;5054467;28;20021;-54
2022/10/15 06:31:39;;;;;;;85.97;60.15;;;18.20;1.00;;;;;;5053423;28;20390;-52
2022/10/15 06:34:04;;;;;;;84.97;56.20;;;18.10;1.00;;;;;;5053719;28;20021;-52
2022/10/15 06:36:30;;;;;;;80.90;56.28;;;18.10;1.00;;;;;;5053209;28;20044;-53
2022/10/15 06:38:56;;;;;;;81.10;56.72;;;18.20;1.00;;;;;;5054359;28;20025;-50
2022/10/15 06:41:21;;;;;;;82.85;56.50;;;18.20;1.00;;;;;;5055722;28;20036;-52
2022/10/15 06:43:50;;;;;;;80.45;57.08;;;18.30;1.00;;;;;;5054216;28;20060;-53
2022/10/15 06:46:15;;;;;;;82.25;55.25;;;18.30;1.00;;;;;;5052761;28;20033;-48
2022/10/15 06:48:41;;;;;;;77.85;53.22;;;18.30;1.00;;;;;;5054476;28;20078;-52
2022/10/15 06:51:07;;;;;;;76.63;53.00;;;18.20;1.00;;;;;;5053189;28;20482;-52
2022/10/15 06:53:33;;;;;;;74.40;51.85;;;18.20;1.00;;;;;;5040094;28;20029;-51
2022/10/15 06:56:00;;;;;;;73.78;51.97;;;18.30;1.00;;;;;;5043928;28;20033;-49
2022/10/15 06:58:26;;;;;;;66.55;49.35;;;18.30;1.00;;;;;;5050322;28;20025;-49
2022/10/15 07:00:52;;;;;;;70.60;50.80;;;18.20;1.00;;;;;;5053131;28;20028;-50
2022/10/15 07:03:17;;;;;;;75.38;50.90;;;18.30;1.00;;;;;;5053983;28;20205;-47
2022/10/15 07:05:43;;;;;;;72.30;47.75;;;18.30;1.00;;;;;;5052923;28;20033;-51
2022/10/15 07:08:09;;;;;;;68.85;48.60;;;18.30;1.00;;;;;;5054062;28;20025;-50
2022/10/15 07:10:34;;;;;;;66.03;48.00;;;18.30;1.00;;;;;;5053140;28;20397;-49
2022/10/15 07:13:00;;;;;;;68.43;49.30;;;18.30;1.00;;;;;;5051658;28;20056;-51
2022/10/15 07:15:27;;;;;;;70.30;48.67;;;18.30;1.00;;;;;;5052361;28;20079;-48
2022/10/15 07:18:00;;;;;;;68.43;48.70;;;18.30;1.00;;;;;;5042094;28;20047;-50
2022/10/15 07:20:29;;;;;;;68.60;47.38;;;18.40;1.00;;;;;;5041149;28;20025;-48
2022/10/15 07:22:56;;;;;;;67.57;48.38;;;18.40;1.00;;;;;;5052302;28;20032;-48
2022/10/15 07:25:22;;;;;;;67.38;47.47;;;18.30;1.00;;;;;;5053606;28;20063;-49
2022/10/15 07:27:48;;;;;;;64.68;48.35;;;18.40;1.00;;;;;;5052818;28;20037;-50
2022/10/15 07:30:13;;;;;;;64.78;47.80;;;18.30;1.00;;;;;;5053157;28;20021;-50
2022/10/15 07:32:39;;;;;;;72.72;48.15;;;18.30;1.00;;;;;;5050598;28;20110;-51
2022/10/15 07:35:05;;;;;;;73.28;47.63;;;18.40;1.00;;;;;;5053409;28;20031;-51
2022/10/15 07:37:31;;;;;;;66.38;46.85;;;18.40;1.00;;;;;;5050371;28;20040;-50
2022/10/15 07:39:56;;;;;;;70.78;50.08;;;18.30;1.00;;;;;;5053127;28;20021;-49
2022/10/15 07:42:22;;;;;;;71.47;52.13;;;18.30;1.00;;;;;;5052716;28;20379;-47
2022/10/15 07:44:47;;;;;;;75.47;53.72;;;18.30;1.00;;;;;;5052810;28;20083;-51
2022/10/15 07:47:13;;;;;;;76.20;52.10;;;18.40;1.00;;;;;;5051305;28;20027;-47
2022/10/15 07:49:38;;;;;;;75.75;51.70;;;18.50;1.00;;;;;;5053025;28;20032;-50
2022/10/15 07:52:04;;;;;;;79.72;55.35;;;18.50;1.00;;;;;;5047325;28;20029;-49
2022/10/15 07:54:32;;;;;;;77.82;53.17;;;18.50;1.00;;;;;;5053123;28;20115;-52
2022/10/15 07:56:57;;;;;;;78.38;54.38;;;18.60;1.00;;;;;;5042177;28;20025;-51
2022/10/15 07:59:23;;;;;;;74.00;53.58;;;18.60;1.00;;;;;;5052865;28;20097;-55
2022/10/15 08:01:50;;;;;;;77.50;54.58;;;18.60;1.00;;;;;;5052095;28;20191;-50
2022/10/15 08:04:16;;;;;;;78.28;54.83;;;18.70;1.00;;;;;;5052645;28;20021;-48
2022/10/15 08:06:41;;;;;;;78.57;54.83;;;18.70;1.00;;;;;;5052189;28;20087;-48
2022/10/15 08:09:07;;;;;;;85.47;55.75;;;18.80;1.00;;;;;;5051946;28;20486;-50
2022/10/15 08:11:33;;;;;;;77.22;52.03;;;18.90;1.00;;;;;;5038129;28;20044;-48
2022/10/15 08:13:58;;;;;;;79.47;54.80;;;18.90;1.00;;;;;;5052452;28;20040;-47
2022/10/15 08:16:24;;;;;;;83.70;56.28;;;19.00;1.00;;;;;;5052007;28;20021;-50
2022/10/15 08:18:50;;;;;;;83.93;56.88;;;19.10;1.00;;;;;;5058160;28;20486;-50
2022/10/15 08:21:15;;;;;;;82.82;57.00;;;19.10;1.00;;;;;;5050939;28;20033;-49
2022/10/15 08:23:41;;;;;;;84.57;58.00;;;19.10;1.00;;;;;;5052786;28;20044;-46
2022/10/15 08:26:07;;;;;;;90.97;59.55;;;19.10;1.00;;;;;;5052043;28;20025;-46
2022/10/15 08:28:34;;;;;;;92.00;60.55;;;19.10;1.00;;;;;;5054137;28;20374;-47
2022/10/15 08:31:01;;;;;;;87.40;61.05;;;19.10;1.00;;;;;;5055321;28;20106;-49
2022/10/15 08:33:27;;;;;;;96.40;62.95;;;19.10;1.00;;;;;;5055709;28;20052;-46
2022/10/15 08:35:53;;;;;;;90.75;61.25;;;19.20;1.00;;;;;;5055880;28;20028;-47
2022/10/15 08:38:19;;;;;;;90.72;62.25;;;19.20;1.00;;;;;;5056576;28;20096;-49
2022/10/15 08:40:54;;;;;;;87.28;59.30;;;19.20;1.00;;;;;;5056070;28;20052;-49
2022/10/15 08:43:29;;;;;;;94.78;59.97;;;19.20;1.00;;;;;;5055297;28;20458;-47
2022/10/15 08:45:59;;;;;;;90.32;61.83;;;19.20;1.00;;;;;;5051894;28;20029;-47
2022/10/15 08:48:43;;;;;;;88.63;61.80;;;19.20;1.00;;;;;;5056091;28;20029;-45
2022/10/15 08:51:40;;;;;;;92.32;62.40;;;19.30;1.00;;;;;;5053682;28;20040;-48
2022/10/15 08:54:14;;;;;;;86.03;61.65;;;19.40;1.00;;;;;;5051817;28;20127;-50
2022/10/15 08:56:44;;;;;;;92.22;65.63;;;19.40;1.00;;;;;;5047186;28;20132;-50
2022/10/15 08:59:21;;;;;;;94.13;62.95;;;19.40;1.00;;;;;;5036215;28;20029;-50
2022/10/15 09:01:56;;;;;;;87.78;60.35;;;19.50;1.00;;;;;;5053213;28;20040;-47
2022/10/15 09:04:34;;;;;;;94.75;64.35;;;19.60;1.00;;;;;;5055295;28;20112;-47
2022/10/15 09:07:12;;;;;;;93.47;64.30;;;19.60;1.00;;;;;;5055183;28;20029;-49
2022/10/15 09:09:38;;;;;;;88.28;62.95;;;19.60;1.00;;;;;;5056074;28;20021;-47
2022/10/15 09:12:32;;;;;;;93.05;64.72;;;19.60;1.00;;;;;;5053855;28;20056;-46
2022/10/15 09:14:59;;;;;;;95.60;65.30;;;19.70;1.00;;;;;;5055984;28;20033;-47
2022/10/15 09:17:30;;;;;;;93.88;65.47;;;19.70;1.00;;;;;;5054910;28;20517;-48
2022/10/15 09:19:57;;;;;;;94.32;65.15;;;19.80;1.00;;;;;;5042133;28;20079;-46
2022/10/15 09:22:29;;;;;;;88.00;62.38;;;19.90;1.00;;;;;;5054659;28;20112;-50
2022/10/15 09:24:55;;;;;;;92.97;65.43;;;19.90;1.00;;;;;;5055354;28;20449;-49
2022/10/15 09:27:34;;;;;;;98.25;65.28;;;19.90;1.00;;;;;;5048722;28;20022;-49
2022/10/15 09:30:44;;;;;;;92.68;66.43;;;19.90;1.00;;;;;;5054857;28;20009;-53
2022/10/15 09:33:35;;;;;;;95.65;66.93;;;20.00;1.00;;;;;;5035913;28;20045;-49
2022/10/15 09:36:34;;;;;;;89.22;65.07;;;20.00;1.00;;;;;;5054479;28;20025;-50
2022/10/15 09:39:31;;;;;;;87.18;63.28;;;20.10;1.00;;;;;;5055575;28;20025;-51
2022/10/15 09:42:26;;;;;;;88.90;61.65;;;20.10;1.00;;;;;;5053904;28;20096;-48
2022/10/15 09:44:53;;;;;;;86.65;61.85;;;20.10;1.00;;;;;;5045875;28;20037;-47
2022/10/15 09:47:28;;;;;;;84.15;61.20;;;20.10;1.00;;;;;;5054518;28;20485;-47
2022/10/15 09:49:53;;;;;;;94.75;65.18;;;20.20;1.00;;;;;;5055398;28;20029;-50
2022/10/15 09:52:25;;;;;;;94.60;64.60;;;20.30;1.00;;;;;;5054541;28;20025;-49
2022/10/15 09:54:59;;;;;;;87.95;63.53;;;20.40;1.00;;;;;;5055308;28;20033;-50
2022/10/15 09:57:26;;;;;;;84.78;61.58;;;20.50;1.00;;;;;;5041768;28;20036;-52
2022/10/15 10:00:00;;;;;;;88.18;63.13;;;20.60;1.00;;;;;;5049668;28;20029;-52
2022/10/15 10:02:26;;;;;;;90.03;63.60;;;20.70;1.00;;;;;;5044506;28;20036;-50
2022/10/15 10:04:52;;;;;;;86.07;62.10;;;20.80;1.00;;;;;;5045218;28;20037;-54
2022/10/15 10:07:36;;;;;;;86.68;62.85;;;20.80;1.00;;;;;;5062914;28;20032;-49
2022/10/15 10:10:06;;;;;;;86.18;62.60;;;20.70;1.00;;;;;;5048154;28;20036;-52
2022/10/15 10:12:34;;;;;;;87.13;63.33;;;20.70;1.00;;;;;;5041524;28;20041;-49
2022/10/15 10:15:20;;;;;;;83.18;63.08;;;20.70;1.00;;;;;;5055165;28;20032;-50
2022/10/15 10:17:52;;;;;;;85.78;63.08;;;20.80;1.00;;;;;;5054312;28;20119;-55
2022/10/15 10:20:20;;;;;;;85.72;63.78;;;20.90;1.00;;;;;;5070114;28;20383;-53
2022/10/15 10:22:48;;;;;;;84.45;62.95;;;21.00;1.00;;;;;;5051988;28;20029;-50
2022/10/15 10:25:26;;;;;;;85.95;63.42;;;20.90;1.00;;;;;;5054114;28;20078;-51
2022/10/15 10:28:07;;;;;;;85.45;62.72;;;21.10;1.00;;;;;;5044027;28;20033;-50
2022/10/15 10:30:36;;;;;;;90.38;65.38;;;21.10;1.00;;;;;;5054562;28;20021;-50
2022/10/15 10:33:02;;;;;;;81.82;62.75;;;21.00;1.00;;;;;;5052867;28;20033;-50
2022/10/15 10:35:42;;;;;;;87.07;67.18;;;21.10;1.00;;;;;;5054517;28;20462;-49
2022/10/15 10:38:31;;;;;;;88.00;64.85;;;21.10;1.00;;;;;;5053482;28;20512;-50
2022/10/15 10:41:04;;;;;;;90.45;63.53;;;21.20;1.00;;;;;;5039449;28;20026;-53
2022/10/15 10:43:30;;;;;;;90.65;66.35;;;21.30;1.00;;;;;;5052998;28;20119;-50
2022/10/15 10:46:02;;;;;;;86.22;64.22;;;21.30;1.00;;;;;;5054271;28;20025;-54
2022/10/15 10:48:49;;;;;;;91.05;66.45;;;21.40;1.00;;;;;;5052798;28;20113;-51
2022/10/15 10:51:17;;;;;;;95.30;67.75;;;21.60;1.00;;;;;;5045861;28;20033;-50
2022/10/15 10:54:05;;;;;;;97.78;70.07;;;21.60;1.00;;;;;;5047662;28;20064;-49
2022/10/15 10:56:37;;;;;;;96.63;68.05;;;21.30;1.00;;;;;;5054145;28;20017;-51
2022/10/15 10:59:12;;;;;;;93.53;69.22;;;21.30;1.00;;;;;;5052965;28;20040;-50
2022/10/15 11:01:37;;;;;;;97.45;69.78;;;21.20;1.00;;;;;;5053966;28;20097;-54
2022/10/15 11:04:03;;;;;;;97.97;70.22;;;21.10;1.00;;;;;;5052856;28;20111;-51
2022/10/15 11:06:30;;;;;;;94.80;67.03;;;21.10;1.00;;;;;;5053969;28;20478;-50
2022/10/15 11:09:11;;;;;;;93.90;67.50;;;21.00;1.00;;;;;;5053067;28;20032;-50
2022/10/15 11:12:07;;;;;;;94.97;67.97;;;21.10;1.00;;;;;;5054009;28;20100;-48
2022/10/15 11:14:47;;;;;;;82.50;60.67;;;21.10;1.00;;;;;;5052616;28;20037;-48
2022/10/15 11:17:18;;;;;;;86.55;62.80;;;21.10;1.00;;;;;;5052083;28;20025;-55
2022/10/15 11:19:51;;;;;;;84.35;63.60;;;21.10;1.00;;;;;;5053678;28;20035;-53
2022/10/15 11:22:41;;;;;;;83.45;60.45;;;21.20;1.00;;;;;;5053000;28;20033;-49
2022/10/15 11:25:15;;;;;;;75.93;57.28;;;21.40;1.00;;;;;;5042872;28;20017;-54
2022/10/15 11:27:53;;;;;;;;;;;21.80;1.00;;;;;;5052850;28;20079;-47
2022/10/15 11:30:37;;;;;;;79.57;55.53;;;21.80;1.00;;;;;;5053230;28;19924;-52
2022/10/15 11:33:18;;;;;;;75.20;54.28;;;22.00;1.00;;;;;;5052773;28;20036;-48
2022/10/15 11:36:04;;;;;;;68.53;49.92;;;22.10;1.00;;;;;;5053449;28;20032;-53
2022/10/15 11:38:41;;;;;;;67.57;50.22;;;22.00;1.00;;;;;;5048710;28;20040;-49
2022/10/15 11:41:31;;;;;;;69.55;49.80;;;22.00;1.00;;;;;;5051684;28;20025;-49
2022/10/15 11:44:19;;;;;;;66.13;49.15;;;22.00;1.00;;;;;;5052315;28;20037;-48
2022/10/15 11:47:03;;;;;;;63.47;46.15;;;22.00;1.00;;;;;;5052902;28;20025;-51
2022/10/15 11:49:40;;;;;;;70.65;49.35;;;22.00;1.00;;;;;;5051966;28;20036;-50
2022/10/15 11:52:06;;;;;;;68.78;48.00;;;22.10;1.00;;;;;;5039700;28;20039;-53
2022/10/15 11:54:56;;;;;;;61.72;47.72;;;22.00;1.00;;;;;;5051012;28;20112;-52
2022/10/15 11:57:24;;;;;;;71.78;53.15;;;21.90;1.00;;;;;;5040599;28;20027;-59
2022/10/15 11:59:59;;;;;;;62.42;48.30;;;21.90;1.00;;;;;;5052801;28;20040;-51
2022/10/15 12:02:34;;;;;;;60.67;45.35;;;22.00;1.00;;;;;;5052105;28;20104;-51
2022/10/15 12:05:36;;;;;;;59.92;44.90;;;22.10;1.00;;;;;;5052480;28;20051;-52
2022/10/15 12:08:03;;;;;;;57.85;43.55;;;22.20;1.00;;;;;;5045688;28;20486;-52
2022/10/15 12:10:29;;;;;;;63.88;45.67;;;22.20;1.00;;;;;;5052175;28;20033;-51
2022/10/15 12:13:08;;;;;;;56.08;44.63;;;22.20;1.00;;;;;;5051561;28;20078;-52
2022/10/15 12:15:34;;;;;;;63.30;46.25;;;22.10;1.00;;;;;;5051453;28;20041;-53
2022/10/15 12:18:22;;;;;;;56.47;43.83;;;22.10;1.00;;;;;;5051700;28;20032;-53
2022/10/15 12:20:48;;;;;;;60.72;46.30;;;22.10;1.00;;;;;;5052729;28;20013;-51
2022/10/15 12:23:23;;;;;;;63.83;47.60;;;22.10;1.00;;;;;;5050520;28;20386;-53
2022/10/15 12:25:49;;;;;;;63.70;46.55;;;22.10;1.00;;;;;;5052355;28;20040;-51
2022/10/15 12:28:25;;;;;;;63.47;46.47;;;22.20;1.00;;;;;;5043722;28;20033;-51
2022/10/15 12:30:58;;;;;;;59.95;46.60;;;22.20;1.00;;;;;;5046121;28;20108;-51
2022/10/15 12:33:54;;;;;;;58.95;45.00;;;22.10;1.00;;;;;;5051560;28;20037;-50
2022/10/15 12:36:29;;;;;;;57.67;43.15;;;22.10;1.00;;;;;;5052545;28;20115;-51
2022/10/15 12:39:06;;;;;;;61.08;46.42;;;22.20;1.00;;;;;;5044569;28;20075;-54
2022/10/15 12:41:41;;;;;;;64.32;46.10;;;22.30;1.00;;;;;;5052649;28;20021;-50
2022/10/15 12:44:16;;;;;;;66.40;46.30;;;22.40;1.00;;;;;;5051968;28;20036;-47
2022/10/15 12:46:42;;;;;;;59.60;45.00;;;22.40;1.00;;;;;;5052480;28;20496;-51
2022/10/15 12:49:26;;;;;;;61.17;44.97;;;22.40;1.00;;;;;;5052014;28;20112;-49
2022/10/15 12:51:56;;;;;;;52.33;40.60;;;22.60;1.00;;;;;;5048560;28;20018;-52